Time;durP1;ratioP1;P1;durP2;ratioP2;P2;SDS_P1;SDS_P2;PMS_P1;PMS_P2;Temp;Humidity;BMP_temperature;BMP_pressure;BME280_temperature;BME280_humidity;BME280_pressure;Samples;Min_cycle;Max_cycle;Signal;HPM_P1;HPM_P2
2024/01/11 00:00:43;;;;;;;27.13;25.23;;;;;;;0.09;100.00;103316.53;5011221;28;20509;-35
2024/01/11 00:03:11;;;;;;;26.97;25.17;;;;;;;0.10;100.00;103320.00;5011282;28;20474;-36
2024/01/11 00:05:39;;;;;;;26.97;25.07;;;;;;;0.08;100.00;103320.09;5010466;28;21111;-37
2024/01/11 00:08:07;;;;;;;28.07;26.27;;;;;;;0.03;100.00;103315.97;5011848;28;20540;-38
2024/01/11 00:10:35;;;;;;;27.63;25.67;;;;;;;0.04;100.00;103294.88;5010488;28;20840;-40
2024/01/11 00:13:04;;;;;;;28.40;26.40;;;;;;;0.07;100.00;103299.16;5012793;28;20433;-36
2024/01/11 00:15:32;;;;;;;28.60;26.20;;;;;;;0.05;100.00;103291.34;5010348;28;20437;-34
2024/01/11 00:18:00;;;;;;;27.30;25.50;;;;;;;0.08;100.00;103285.97;5002540;28;21039;-36
2024/01/11 00:20:28;;;;;;;28.30;26.20;;;;;;;0.09;100.00;103284.22;5009451;28;20444;-34
2024/01/11 00:22:56;;;;;;;28.37;26.37;;;;;;;0.06;100.00;103293.03;5009836;28;20437;-36
2024/01/11 00:25:23;;;;;;;28.20;26.10;;;;;;;0.06;100.00;103287.78;5010038;28;20440;-37
2024/01/11 00:27:52;;;;;;;26.87;25.10;;;;;;;0.07;100.00;103281.63;5008348;28;20540;-37
2024/01/11 00:30:23;;;;;;;26.30;24.43;;;;;;;0.06;100.00;103285.16;4995218;28;20471;-34
2024/01/11 00:32:51;;;;;;;26.37;24.57;;;;;;;0.03;100.00;103280.06;5012152;28;20437;-37
2024/01/11 00:35:19;;;;;;;27.00;25.23;;;;;;;-0.06;100.00;103296.22;4993555;28;20444;-35
2024/01/11 00:37:47;;;;;;;28.43;26.23;;;;;;;-0.04;100.00;103289.13;5008774;28;21192;-36
2024/01/11 00:40:15;;;;;;;27.00;25.20;;;;;;;-0.04;100.00;103279.50;5010150;28;20435;-36
2024/01/11 00:42:43;;;;;;;27.87;25.87;;;;;;;-0.05;100.00;103285.66;5010509;28;20441;-35
2024/01/11 00:45:11;;;;;;;27.40;25.60;;;;;;;-0.20;100.00;103285.44;5011703;28;20436;-35
2024/01/11 00:47:40;;;;;;;27.23;25.40;;;;;;;-0.29;100.00;103293.69;5008272;28;20476;-38
2024/01/11 00:50:09;;;;;;;26.80;24.90;;;;;;;-0.35;100.00;103301.81;5011031;28;20452;-41
2024/01/11 00:52:38;;;;;;;28.53;26.63;;;;;;;-0.41;100.00;103310.81;5009811;28;20812;-38
2024/01/11 00:55:06;;;;;;;29.00;27.10;;;;;;;-0.50;100.00;103323.44;5002721;28;20433;-37
2024/01/11 00:57:34;;;;;;;27.27;25.30;;;;;;;-0.53;100.00;103326.16;5009520;28;20453;-35
2024/01/11 01:00:02;;;;;;;29.10;26.90;;;;;;;-0.54;100.00;103321.88;5009699;28;20437;-37
2024/01/11 01:02:31;;;;;;;27.67;25.63;;;;;;;-0.43;100.00;103291.69;5009782;28;20437;-35
2024/01/11 01:05:01;;;;;;;27.77;25.77;;;;;;;-0.35;100.00;103271.22;5002182;28;20436;-41
2024/01/11 01:07:28;;;;;;;26.93;24.93;;;;;;;-0.29;100.00;103280.59;5000887;28;20495;-40
2024/01/11 01:09:56;;;;;;;28.83;26.60;;;;;;;-0.25;100.00;103280.41;5010327;28;20540;-38
2024/01/11 01:12:24;;;;;;;28.37;25.93;;;;;;;-0.26;100.00;103278.69;5001859;28;20528;-37
2024/01/11 01:14:52;;;;;;;27.50;25.60;;;;;;;-0.23;100.00;103281.19;5009284;28;20482;-36
2024/01/11 01:17:20;;;;;;;28.10;26.00;;;;;;;-0.24;100.00;103289.97;5011317;28;20469;-41
2024/01/11 01:19:48;;;;;;;26.63;24.70;;;;;;;-0.25;100.00;103284.81;5008757;28;20988;-42
2024/01/11 01:22:17;;;;;;;26.13;24.30;;;;;;;-0.32;100.00;103288.59;5002525;28;21004;-40
2024/01/11 01:24:45;;;;;;;26.70;24.63;;;;;;;-0.30;100.00;103286.78;5009493;28;20503;-39
2024/01/11 01:27:13;;;;;;;26.27;24.37;;;;;;;-0.36;100.00;103281.78;5010735;28;20535;-37
2024/01/11 01:29:40;;;;;;;26.17;24.03;;;;;;;-0.40;100.00;103278.44;5006234;28;20476;-42
2024/01/11 01:32:08;;;;;;;25.53;23.77;;;;;;;-0.31;100.00;103280.69;5009374;28;20437;-40
2024/01/11 01:34:36;;;;;;;25.27;23.50;;;;;;;-0.36;100.00;103292.28;5009316;28;20495;-40
2024/01/11 01:37:04;;;;;;;25.87;24.07;;;;;;;-0.42;100.00;103301.25;5011599;28;20976;-40
2024/01/11 01:39:33;;;;;;;25.10;23.30;;;;;;;-0.47;100.00;103297.94;5008421;28;20991;-38
2024/01/11 01:42:01;;;;;;;26.80;24.67;;;;;;;-0.44;100.00;103300.44;5008770;28;20441;-39
2024/01/11 01:44:29;;;;;;;25.27;23.50;;;;;;;-0.49;100.00;103302.41;5011496;28;20436;-39
2024/01/11 01:46:57;;;;;;;25.43;23.53;;;;;;;-0.46;100.00;103296.19;5008815;28;20487;-38
2024/01/11 01:49:25;;;;;;;25.60;23.90;;;;;;;-0.52;100.00;103299.91;5000712;28;20460;-38
2024/01/11 01:51:54;;;;;;;24.03;22.43;;;;;;;-0.53;100.00;103306.06;5009421;28;20491;-42
2024/01/11 01:54:23;;;;;;;25.00;23.13;;;;;;;-0.56;100.00;103312.28;5003151;28;20960;-37
2024/01/11 01:56:53;;;;;;;25.67;23.67;;;;;;;-0.54;100.00;103311.38;5000827;28;20456;-40
2024/01/11 01:59:22;;;;;;;25.77;23.83;;;;;;;-0.54;100.00;103309.63;5010847;28;21058;-37
2024/01/11 02:01:50;;;;;;;25.00;23.23;;;;;;;-0.56;100.00;103307.03;5008605;28;20580;-38
2024/01/11 02:04:17;;;;;;;23.17;21.67;;;;;;;-0.59;100.00;103311.56;5011128;28;20437;-42
2024/01/11 02:06:47;;;;;;;24.30;22.73;;;;;;;-0.64;100.00;103310.91;5011578;28;20544;-40
2024/01/11 02:09:17;;;;;;;24.03;22.43;;;;;;;-0.60;100.00;103309.88;5008171;28;20453;-37
2024/01/11 02:11:45;;;;;;;23.53;21.93;;;;;;;-0.60;100.00;103292.34;5009850;28;20468;-38
2024/01/11 02:14:15;;;;;;;23.00;21.43;;;;;;;-0.58;100.00;103287.91;5011306;28;20484;-40
2024/01/11 02:16:42;;;;;;;24.60;22.90;;;;;;;-0.51;100.00;103298.16;5008171;28;20469;-37
2024/01/11 02:19:13;;;;;;;24.70;22.80;;;;;;;-0.49;100.00;103293.69;5007945;28;20511;-36
2024/01/11 02:21:43;;;;;;;23.77;21.97;;;;;;;-0.49;100.00;103296.31;5011124;28;20459;-40
2024/01/11 02:24:12;;;;;;;22.97;21.27;;;;;;;-0.46;100.00;103301.44;5006095;28;21022;-39
2024/01/11 02:26:58;;;;;;;24.43;22.60;;;;;;;-0.47;100.00;103304.94;5011288;28;20540;-38
2024/01/11 02:29:26;;;;;;;24.27;22.67;;;;;;;-0.46;100.00;103317.16;5007046;28;20473;-38
2024/01/11 02:31:55;;;;;;;23.57;21.30;;;;;;;-0.44;100.00;103315.31;5008537;28;20429;-35
2024/01/11 02:34:24;;;;;;;23.83;22.20;;;;;;;-0.43;100.00;103319.66;5009601;28;20444;-37
2024/01/11 02:36:53;;;;;;;24.30;22.70;;;;;;;-0.40;100.00;103309.03;5009360;28;21258;-40
2024/01/11 02:39:24;;;;;;;23.30;21.60;;;;;;;-0.31;100.00;103298.16;5006800;28;20464;-38
2024/01/11 02:41:53;;;;;;;23.73;22.13;;;;;;;-0.30;100.00;103300.72;5008527;28;20510;-40
2024/01/11 02:44:21;;;;;;;22.73;21.33;;;;;;;-0.36;100.00;103302.75;5009147;28;20751;-37
2024/01/11 02:46:49;;;;;;;23.63;21.87;;;;;;;-0.34;100.00;103307.03;5002208;28;20453;-42
2024/01/11 02:49:17;;;;;;;22.53;20.73;;;;;;;-0.32;100.00;103313.03;5012736;28;20559;-38
2024/01/11 02:51:45;;;;;;;23.07;21.10;;;;;;;-0.29;100.00;103320.78;5010973;28;20495;-38
2024/01/11 02:54:13;;;;;;;21.80;20.20;;;;;;;-0.30;100.00;103329.56;5006068;28;20438;-37
2024/01/11 02:56:42;;;;;;;21.20;20.00;;;;;;;-0.32;100.00;103320.91;5011062;28;20459;-42
2024/01/11 02:59:09;;;;;;;20.70;19.30;;;;;;;-0.33;100.00;103316.56;5012002;28;20511;-41
2024/01/11 03:01:37;;;;;;;23.13;21.30;;;;;;;-0.34;100.00;103298.31;5011888;28;20925;-37
2024/01/11 03:04:06;;;;;;;21.83;20.30;;;;;;;-0.23;100.00;103299.53;5003773;28;20438;-38
2024/01/11 03:06:34;;;;;;;21.97;19.97;;;;;;;-0.16;100.00;103285.28;5012886;28;20449;-37
2024/01/11 03:09:03;;;;;;;22.50;20.33;;;;;;;-0.06;100.00;103281.31;5013343;28;20465;-40
2024/01/11 03:11:31;;;;;;;21.50;19.80;;;;;;;-0.01;100.00;103286.38;5012305;28;20441;-40
2024/01/11 03:14:00;;;;;;;21.70;20.07;;;;;;;0.06;100.00;103287.78;5011545;28;20429;-43
2024/01/11 03:16:28;;;;;;;21.73;20.33;;;;;;;0.09;100.00;103285.03;5003084;28;20967;-37
2024/01/11 03:18:55;;;;;;;21.60;20.13;;;;;;;0.13;100.00;103304.97;5011550;28;20551;-38
2024/01/11 03:21:23;;;;;;;24.03;21.73;;;;;;;0.18;100.00;103307.41;5014152;28;20445;-38
2024/01/11 03:23:51;;;;;;;22.63;20.57;;;;;;;0.18;100.00;103296.94;5012451;28;20441;-40
2024/01/11 03:26:19;;;;;;;20.00;18.90;;;;;;;0.23;100.00;103281.81;5003729;28;20808;-40
2024/01/11 03:28:47;;;;;;;20.07;18.77;;;;;;;0.26;100.00;103292.19;5011683;28;20469;-35
2024/01/11 03:31:16;;;;;;;21.30;19.70;;;;;;;0.30;100.00;103283.25;5012658;28;20440;-36
2024/01/11 03:33:45;;;;;;;21.10;19.50;;;;;;;0.33;100.00;103275.25;5012016;28;20787;-36
2024/01/11 03:36:13;;;;;;;20.20;18.80;;;;;;;0.37;100.00;103279.41;5003491;28;20511;-41
2024/01/11 03:38:41;;;;;;;21.17;19.70;;;;;;;0.35;100.00;103271.63;5011131;28;20465;-39
2024/01/11 03:41:10;;;;;;;21.17;19.67;;;;;;;0.41;100.00;103286.25;5011133;28;20531;-37
2024/01/11 03:43:39;;;;;;;20.50;19.13;;;;;;;0.40;100.00;103285.38;5012084;28;20437;-42
2024/01/11 03:46:06;;;;;;;21.20;19.43;;;;;;;0.43;100.00;103264.25;5011581;28;20453;-40
2024/01/11 03:48:36;;;;;;;20.67;19.47;;;;;;;0.45;100.00;103244.03;5013246;28;20528;-37
2024/01/11 03:51:05;;;;;;;20.90;19.53;;;;;;;0.47;100.00;103238.72;5010154;28;20527;-37
2024/01/11 03:53:35;;;;;;;19.67;18.53;;;;;;;0.46;100.00;103245.75;5007739;28;20438;-37
2024/01/11 03:56:04;;;;;;;21.30;19.60;;;;;;;0.47;100.00;103242.19;5007474;28;20468;-36
2024/01/11 03:58:32;;;;;;;21.43;20.10;;;;;;;0.49;100.00;103244.75;5012030;28;20485;-38
2024/01/11 04:01:01;;;;;;;22.27;20.60;;;;;;;0.49;100.00;103244.75;5010664;28;20507;-34
2024/01/11 04:03:29;;;;;;;20.77;19.37;;;;;;;0.48;100.00;103236.00;5011426;28;20536;-40
2024/01/11 04:05:58;;;;;;;21.00;19.70;;;;;;;0.47;100.00;103213.31;5011157;28;20449;-38
2024/01/11 04:08:26;;;;;;;22.23;20.23;;;;;;;0.50;100.00;103202.69;5011745;28;20475;-38
2024/01/11 04:10:54;;;;;;;21.40;19.90;;;;;;;0.49;100.00;103197.47;5010828;28;20962;-38
2024/01/11 04:13:22;;;;;;;21.50;19.80;;;;;;;0.44;100.00;103195.09;5001388;28;20442;-37
2024/01/11 04:15:51;;;;;;;22.73;20.53;;;;;;;0.42;100.00;103196.91;5009822;28;20464;-40
2024/01/11 04:18:19;;;;;;;21.63;19.60;;;;;;;0.40;100.00;103204.03;5012757;28;20453;-38
2024/01/11 04:20:47;;;;;;;20.93;19.83;;;;;;;0.38;100.00;103195.38;5010115;28;20452;-38
2024/01/11 04:23:16;;;;;;;22.10;20.43;;;;;;;0.36;100.00;103194.56;5010360;28;20948;-37
2024/01/11 04:25:44;;;;;;;22.53;20.23;;;;;;;0.34;100.00;103195.56;5012091;28;20438;-37
2024/01/11 04:28:12;;;;;;;24.83;20.13;;;;;;;0.34;100.00;103196.44;5008877;28;20465;-38
2024/01/11 04:30:39;;;;;;;21.37;19.10;;;;;;;0.36;100.00;103205.06;5005786;28;20941;-40
2024/01/11 04:33:07;;;;;;;20.43;18.67;;;;;;;0.38;100.00;103207.66;5008700;28;20965;-37
2024/01/11 04:35:35;;;;;;;20.97;19.43;;;;;;;0.37;100.00;103216.44;5012420;28;20436;-38
2024/01/11 04:38:03;;;;;;;22.10;20.17;;;;;;;0.38;100.00;103219.00;5010892;28;20460;-36
2024/01/11 04:40:33;;;;;;;37.73;24.53;;;;;;;0.39;100.00;103211.94;5010171;28;20540;-37
2024/01/11 04:43:01;;;;;;;23.13;20.83;;;;;;;0.43;100.00;103224.03;5002720;28;20852;-37
2024/01/11 04:45:30;;;;;;;21.57;20.00;;;;;;;0.43;100.00;103209.13;5009531;28;20429;-37
2024/01/11 04:47:58;;;;;;;30.80;22.50;;;;;;;0.45;100.00;103198.53;5009211;28;20488;-39
2024/01/11 04:50:25;;;;;;;23.30;20.63;;;;;;;0.43;100.00;103188.13;5007743;28;20443;-37
2024/01/11 04:52:53;;;;;;;23.80;19.90;;;;;;;0.43;100.00;103185.50;5004749;28;20445;-37
2024/01/11 04:55:21;;;;;;;26.03;22.63;;;;;;;0.42;100.00;103175.06;5001107;28;20428;-37
2024/01/11 04:57:50;;;;;;;24.67;21.67;;;;;;;0.38;100.00;103163.03;5003392;28;20477;-38
2024/01/11 05:00:19;;;;;;;23.07;20.67;;;;;;;0.34;100.00;103159.69;4998731;28;20465;-37
2024/01/11 05:02:47;;;;;;;31.90;21.73;;;;;;;0.34;100.00;103164.94;5000462;28;20480;-40
2024/01/11 05:05:15;;;;;;;21.73;20.10;;;;;;;0.32;100.00;103177.28;4988913;28;20500;-42
2024/01/11 05:07:43;;;;;;;21.87;20.43;;;;;;;0.29;100.00;103177.44;5001725;28;20457;-39
2024/01/11 05:10:10;;;;;;;23.13;21.07;;;;;;;0.32;100.00;103182.53;5011111;28;20508;-40
2024/01/11 05:12:38;;;;;;;23.73;21.43;;;;;;;0.33;100.00;103184.22;5012196;28;20468;-40
2024/01/11 05:15:08;;;;;;;21.73;20.13;;;;;;;0.36;100.00;103181.44;4992798;28;20879;-40
2024/01/11 05:17:36;;;;;;;21.53;19.93;;;;;;;0.38;100.00;103189.28;4992352;28;20540;-38
2024/01/11 05:20:05;;;;;;;24.40;22.23;;;;;;;0.35;100.00;103184.16;4994098;28;20846;-39
2024/01/11 05:22:33;;;;;;;23.70;21.30;;;;;;;0.38;100.00;103176.16;5011927;28;20425;-43
2024/01/11 05:25:00;;;;;;;22.87;20.63;;;;;;;0.36;100.00;103176.19;4993447;28;20438;-39
2024/01/11 05:27:28;;;;;;;28.43;20.67;;;;;;;0.34;100.00;103166.69;5009281;28;20565;-36
2024/01/11 05:29:56;;;;;;;25.57;20.97;;;;;;;0.32;100.00;103179.91;5001199;28;20476;-40
2024/01/11 05:32:26;;;;;;;38.47;22.10;;;;;;;0.34;100.00;103195.56;4997437;28;20467;-35
2024/01/11 05:34:55;;;;;;;21.17;19.57;;;;;;;0.36;100.00;103185.88;4998922;28;20773;-37
2024/01/11 05:37:24;;;;;;;20.47;19.23;;;;;;;0.38;100.00;103182.25;4996759;28;21203;-37
2024/01/11 05:39:54;;;;;;;21.63;19.73;;;;;;;0.40;100.00;103179.53;4996151;28;20472;-38
2024/01/11 05:42:21;;;;;;;20.30;19.13;;;;;;;0.41;100.00;103178.63;5011699;28;20436;-37
2024/01/11 05:44:49;;;;;;;21.93;19.83;;;;;;;0.41;100.00;103176.00;5003377;28;20440;-40
2024/01/11 05:47:17;;;;;;;23.23;20.87;;;;;;;0.40;100.00;103169.91;4997556;28;20520;-35
2024/01/11 05:49:47;;;;;;;21.30;19.87;;;;;;;0.40;100.00;103164.66;4989321;28;20877;-40
2024/01/11 05:52:15;;;;;;;19.33;18.30;;;;;;;0.44;100.00;103168.00;4996600;28;20495;-40
2024/01/11 05:54:43;;;;;;;20.97;19.83;;;;;;;0.45;100.00;103164.41;4989991;28;20516;-37
2024/01/11 05:57:10;;;;;;;21.60;20.00;;;;;;;0.46;100.00;103177.47;4997012;28;20538;-37
2024/01/11 05:59:38;;;;;;;21.10;19.63;;;;;;;0.49;100.00;103177.34;4992306;28;20520;-37
2024/01/11 06:02:06;;;;;;;21.13;19.73;;;;;;;0.50;100.00;103162.44;5001310;28;20434;-39
2024/01/11 06:04:34;;;;;;;21.97;20.67;;;;;;;0.47;100.00;103168.69;5001339;28;20519;-42
2024/01/11 06:07:04;;;;;;;21.53;20.23;;;;;;;0.48;100.00;103172.16;5008327;28;20553;-37
2024/01/11 06:09:32;;;;;;;20.27;18.67;;;;;;;0.45;100.00;103172.28;4989912;28;20908;-37
2024/01/11 06:12:01;;;;;;;20.07;19.07;;;;;;;0.45;100.00;103170.53;4996522;28;20441;-39
2024/01/11 06:14:28;;;;;;;20.93;19.87;;;;;;;0.46;100.00;103158.25;4991627;28;20826;-40
2024/01/11 06:16:56;;;;;;;21.20;19.80;;;;;;;0.46;100.00;103155.63;5008350;28;20475;-39
2024/01/11 06:19:24;;;;;;;21.70;20.50;;;;;;;0.47;100.00;103154.72;5007572;28;20457;-37
2024/01/11 06:21:52;;;;;;;21.70;20.23;;;;;;;0.49;100.00;103156.34;5003532;28;20425;-37
2024/01/11 06:24:20;;;;;;;21.00;19.90;;;;;;;0.52;100.00;103148.31;4997047;28;20497;-37
2024/01/11 06:26:47;;;;;;;21.70;20.40;;;;;;;0.52;100.00;103147.47;5008335;28;20522;-40
2024/01/11 06:29:15;;;;;;;21.40;20.00;;;;;;;0.54;100.00;103150.84;5002788;28;20997;-39
2024/01/11 06:31:43;;;;;;;20.80;19.67;;;;;;;0.55;100.00;103158.66;5003416;28;20480;-40
2024/01/11 06:34:10;;;;;;;21.60;20.10;;;;;;;0.54;100.00;103156.97;5012608;28;20852;-41
2024/01/11 06:36:38;;;;;;;20.13;19.03;;;;;;;0.57;100.00;103154.19;5000678;28;20453;-38
2024/01/11 06:39:06;;;;;;;20.77;19.43;;;;;;;0.57;100.00;103164.69;5000275;28;20465;-37
2024/01/11 06:41:35;;;;;;;21.00;19.80;;;;;;;0.56;100.00;103159.53;5011714;28;20439;-37
2024/01/11 06:44:03;;;;;;;20.20;19.20;;;;;;;0.57;100.00;103152.50;5011454;28;20432;-39
2024/01/11 06:46:31;;;;;;;20.17;19.07;;;;;;;0.57;100.00;103157.75;5014557;28;21167;-35
2024/01/11 06:48:59;;;;;;;18.70;17.90;;;;;;;0.57;100.00;103151.56;5008153;28;20494;-36
2024/01/11 06:51:27;;;;;;;20.90;19.50;;;;;;;0.59;100.00;103166.41;5013330;28;21041;-35
2024/01/11 06:53:54;;;;;;;20.80;19.57;;;;;;;0.60;100.00;103173.38;5012218;28;20541;-35
2024/01/11 06:56:22;;;;;;;21.57;20.30;;;;;;;0.59;100.00;103172.50;5008017;28;20480;-36
2024/01/11 06:58:52;;;;;;;21.27;19.77;;;;;;;0.60;100.00;103182.06;5013786;28;20458;-35
2024/01/11 07:01:19;;;;;;;21.13;19.83;;;;;;;0.62;100.00;103189.88;5002934;28;20499;-36
2024/01/11 07:03:47;;;;;;;21.37;20.07;;;;;;;0.61;100.00;103186.41;5001669;28;20440;-35
2024/01/11 07:06:15;;;;;;;19.97;18.97;;;;;;;0.61;100.00;103186.41;5005779;28;20460;-35
2024/01/11 07:08:43;;;;;;;20.30;19.23;;;;;;;0.61;100.00;103188.19;4984460;28;20769;-35
2024/01/11 07:11:12;;;;;;;20.10;19.00;;;;;;;0.61;100.00;103185.56;5001393;28;20561;-35
2024/01/11 07:13:40;;;;;;;19.83;18.70;;;;;;;0.60;100.00;103181.25;5005577;28;20433;-37
2024/01/11 07:16:10;;;;;;;19.50;18.37;;;;;;;0.61;100.00;103194.28;5014934;28;20464;-36
2024/01/11 07:18:42;;;;;;;20.93;19.73;;;;;;;0.55;100.00;103194.56;4992031;28;20519;-35
2024/01/11 07:21:10;;;;;;;21.70;20.50;;;;;;;0.55;100.00;103190.19;5009094;28;20466;-35
2024/01/11 07:23:37;;;;;;;23.57;22.20;;;;;;;0.55;100.00;103178.81;5012438;28;20441;-35
2024/01/11 07:26:05;;;;;;;22.30;21.10;;;;;;;0.53;100.00;103180.69;5007734;28;20457;-36
2024/01/11 07:28:33;;;;;;;22.17;20.87;;;;;;;0.53;100.00;103175.44;4999832;28;20830;-36
2024/01/11 07:31:00;;;;;;;21.70;20.50;;;;;;;0.53;100.00;103172.81;5007044;28;20469;-36
2024/01/11 07:33:30;;;;;;;20.63;19.60;;;;;;;0.52;100.00;103169.31;5009782;28;20498;-36
2024/01/11 07:35:58;;;;;;;20.83;19.77;;;;;;;0.53;100.00;103162.31;5007911;28;20454;-36
2024/01/11 07:38:26;;;;;;;20.07;19.00;;;;;;;0.55;100.00;103171.81;5001537;28;20458;-35
2024/01/11 07:40:54;;;;;;;21.37;20.07;;;;;;;0.55;100.00;103184.06;5009012;28;20465;-35
2024/01/11 07:43:22;;;;;;;21.27;20.17;;;;;;;0.56;100.00;103175.28;4992413;28;20893;-35
2024/01/11 07:45:56;;;;;;;21.10;20.00;;;;;;;0.60;100.00;103194.38;5009984;28;20473;-35
2024/01/11 07:48:24;;;;;;;20.23;19.20;;;;;;;0.61;100.00;103190.81;5000719;28;20469;-36
2024/01/11 07:50:53;;;;;;;21.13;19.83;;;;;;;0.61;100.00;103202.16;5004435;28;20666;-36
2024/01/11 07:53:21;;;;;;;20.87;19.77;;;;;;;0.65;100.00;103206.34;5012293;28;20448;-36
2024/01/11 07:55:49;;;;;;;20.07;19.07;;;;;;;0.66;100.00;103197.53;4999600;28;20995;-35
2024/01/11 07:58:17;;;;;;;20.20;18.97;;;;;;;0.67;100.00;103187.88;4993965;28;20470;-36
2024/01/11 08:00:44;;;;;;;20.30;19.20;;;;;;;0.69;100.00;103186.06;4984724;28;20430;-37
2024/01/11 08:03:12;;;;;;;19.33;18.13;;;;;;;0.73;100.00;103188.44;5000645;28;20449;-35
2024/01/11 08:05:40;;;;;;;18.83;17.83;;;;;;;0.72;100.00;103192.00;5014343;28;20433;-35
2024/01/11 08:08:09;;;;;;;20.07;19.07;;;;;;;0.72;100.00;103188.53;5002598;28;20457;-35
2024/01/11 08:10:37;;;;;;;18.50;17.60;;;;;;;0.75;100.00;103189.22;5004431;28;20981;-37
2024/01/11 08:13:04;;;;;;;21.00;19.50;;;;;;;0.76;100.00;103197.94;5011324;28;20437;-35
2024/01/11 08:15:32;;;;;;;20.60;19.40;;;;;;;0.79;100.00;103189.94;5009032;28;20473;-37
2024/01/11 08:18:00;;;;;;;20.60;19.70;;;;;;;0.79;100.00;103195.19;5006104;28;20519;-36
2024/01/11 08:20:28;;;;;;;21.07;19.80;;;;;;;0.81;100.00;103196.81;5015349;28;20433;-35
2024/01/11 08:22:56;;;;;;;21.00;19.80;;;;;;;0.81;100.00;103201.19;5011818;28;21035;-36
2024/01/11 08:25:25;;;;;;;20.53;19.40;;;;;;;0.80;100.00;103199.50;5015150;28;20433;-36
2024/01/11 08:27:53;;;;;;;20.50;19.30;;;;;;;0.82;100.00;103202.91;5017608;28;20484;-35
2024/01/11 08:30:21;;;;;;;21.07;19.80;;;;;;;0.82;100.00;103198.50;5005323;28;20891;-39
2024/01/11 08:32:49;;;;;;;19.70;18.60;;;;;;;0.85;100.00;103192.25;5015426;28;20433;-37
2024/01/11 08:35:17;;;;;;;21.50;20.10;;;;;;;0.87;100.00;103185.13;5006752;28;20437;-35
2024/01/11 08:37:44;;;;;;;21.00;19.90;;;;;;;0.90;100.00;103167.47;5013836;28;20453;-38
2024/01/11 08:40:12;;;;;;;21.20;20.10;;;;;;;0.95;100.00;103167.25;5001350;28;20438;-35
2024/01/11 08:42:42;;;;;;;21.50;20.30;;;;;;;0.96;100.00;103164.53;4995942;28;20442;-36
2024/01/11 08:45:17;;;;;;;21.43;20.23;;;;;;;1.03;100.00;103172.97;5010456;28;20442;-36
2024/01/11 08:47:45;;;;;;;21.53;20.13;;;;;;;1.06;100.00;103167.56;5013058;28;20876;-36
2024/01/11 08:50:13;;;;;;;21.47;20.17;;;;;;;1.10;100.00;103158.59;5003722;28;20434;-36
2024/01/11 08:52:42;;;;;;;21.27;20.00;;;;;;;1.17;100.00;103180.16;5010280;28;20472;-36
2024/01/11 08:55:09;;;;;;;21.60;20.13;;;;;;;1.22;100.00;103170.28;4995438;28;21063;-36
2024/01/11 08:57:37;;;;;;;22.03;20.70;;;;;;;1.26;100.00;103180.53;5006084;28;20460;-36
2024/01/11 09:00:07;;;;;;;21.10;19.57;;;;;;;1.31;100.00;103172.44;5003759;28;20433;-36
2024/01/11 09:02:35;;;;;;;21.00;19.80;;;;;;;1.34;100.00;103161.78;5005842;28;20799;-36
2024/01/11 09:05:04;;;;;;;20.50;19.50;;;;;;;1.40;100.00;103161.47;5006188;28;20991;-35
2024/01/11 09:07:35;;;;;;;20.33;19.17;;;;;;;1.44;100.00;103152.47;5005637;28;20962;-36
2024/01/11 09:10:04;;;;;;;21.47;20.17;;;;;;;1.48;100.00;103141.72;5013289;28;20530;-36
2024/01/11 09:12:31;;;;;;;20.87;19.77;;;;;;;1.55;100.00;103131.75;5008447;28;20523;-35
2024/01/11 09:14:59;;;;;;;22.23;20.70;;;;;;;1.58;100.00;103127.16;5016653;28;20460;-36
2024/01/11 09:17:28;;;;;;;20.67;19.60;;;;;;;1.66;100.00;103132.88;5013637;28;21016;-37
2024/01/11 09:19:56;;;;;;;21.20;19.97;;;;;;;1.75;100.00;103136.81;5001931;28;20591;-36
2024/01/11 09:22:23;;;;;;;21.03;19.83;;;;;;;1.81;100.00;103135.63;4996389;28;20426;-36
2024/01/11 09:24:52;;;;;;;22.30;20.80;;;;;;;1.88;100.00;103135.19;4989480;28;20445;-37
2024/01/11 09:27:19;;;;;;;20.93;19.67;;;;;;;1.95;100.00;103133.94;5001713;28;20991;-36
2024/01/11 09:29:47;;;;;;;21.67;20.40;;;;;;;2.03;100.00;103128.28;5000828;28;20464;-36
2024/01/11 09:32:17;;;;;;;22.03;20.63;;;;;;;2.05;100.00;103134.31;4999994;28;20487;-37
2024/01/11 09:34:46;;;;;;;21.27;19.77;;;;;;;2.10;100.00;103145.41;5008591;28;20452;-35
2024/01/11 09:37:13;;;;;;;20.90;19.80;;;;;;;2.23;100.00;103142.03;5003705;28;20464;-36
2024/01/11 09:39:42;;;;;;;21.40;19.97;;;;;;;2.32;100.00;103140.69;5001702;28;20489;-36
2024/01/11 09:42:10;;;;;;;21.00;19.80;;;;;;;2.33;100.00;103152.06;5002399;28;20438;-36
2024/01/11 09:44:39;;;;;;;22.30;20.80;;;;;;;2.43;100.00;103151.47;5011808;28;20433;-36
2024/01/11 09:47:10;;;;;;;21.70;20.40;;;;;;;2.53;100.00;103157.06;5008239;28;20457;-36
2024/01/11 09:49:46;;;;;;;23.37;21.43;;;;;;;2.58;100.00;103168.19;5010392;28;20777;-36
2024/01/11 09:52:16;;;;;;;21.57;20.33;;;;;;;2.65;100.00;103162.50;5001810;28;20541;-36
2024/01/11 09:54:45;;;;;;;23.00;21.70;;;;;;;2.73;100.00;103167.31;5007243;28;20460;-35
2024/01/11 09:57:12;;;;;;;21.60;20.30;;;;;;;2.75;100.00;103176.84;5012777;28;20457;-39
2024/01/11 09:59:42;;;;;;;22.73;20.93;;;;;;;2.74;100.00;103183.06;4994136;28;20806;-38
2024/01/11 10:02:12;;;;;;;23.37;21.83;;;;;;;2.65;100.00;103182.72;5008100;28;20952;-36
2024/01/11 10:04:43;;;;;;;21.97;20.70;;;;;;;2.59;100.00;103186.56;4999253;28;20465;-35
2024/01/11 10:07:12;;;;;;;22.53;21.17;;;;;;;2.59;100.00;103190.97;5011902;28;20457;-36
2024/01/11 10:09:40;;;;;;;21.87;20.67;;;;;;;2.66;100.00;103194.94;5014030;28;20461;-37
2024/01/11 10:12:09;;;;;;;23.47;21.47;;;;;;;2.77;100.00;103189.94;5008357;28;20600;-36
2024/01/11 10:14:37;;;;;;;22.10;20.70;;;;;;;2.85;100.00;103187.72;5012525;28;20448;-36
2024/01/11 10:17:05;;;;;;;22.80;21.00;;;;;;;2.94;100.00;103181.91;5007283;28;20461;-36
2024/01/11 10:19:33;;;;;;;22.33;20.90;;;;;;;3.06;100.00;103193.53;5012920;28;20473;-36
2024/01/11 10:22:00;;;;;;;21.47;20.13;;;;;;;3.20;100.00;103191.81;4995743;28;20430;-36
2024/01/11 10:24:29;;;;;;;21.63;20.30;;;;;;;3.33;100.00;103178.75;5009817;28;20499;-39
2024/01/11 10:26:58;;;;;;;22.37;20.77;;;;;;;3.44;100.00;103180.75;5005768;28;20984;-39
2024/01/11 10:29:31;;;;;;;21.77;20.13;;;;;;;3.52;100.00;103184.66;5004429;28;20465;-39
2024/01/11 10:31:59;;;;;;;22.37;20.90;;;;;;;3.67;100.00;103175.81;4996395;28;20476;-36
2024/01/11 10:34:27;;;;;;;22.17;20.70;;;;;;;3.80;100.00;103189.94;5002645;28;20430;-35
2024/01/11 10:36:56;;;;;;;20.37;19.30;;;;;;;3.91;100.00;103184.03;5003239;28;20996;-37
2024/01/11 10:39:26;;;;;;;19.93;18.70;;;;;;;4.02;100.00;103199.19;5009483;28;20461;-38
2024/01/11 10:42:05;;;;;;;22.47;20.90;;;;;;;4.13;100.00;103204.66;4994877;28;20916;-36
2024/01/11 10:44:35;;;;;;;22.17;20.90;;;;;;;4.17;100.00;103193.81;5004520;28;20465;-37
2024/01/11 10:47:06;;;;;;;21.17;19.70;;;;;;;4.24;100.00;103191.66;5010643;28;20528;-36
2024/01/11 10:49:40;;;;;;;22.10;20.50;;;;;;;4.34;100.00;103180.41;5001639;28;20453;-36
2024/01/11 10:52:09;;;;;;;22.10;20.60;;;;;;;4.46;100.00;103179.63;5013429;28;20902;-36
2024/01/11 10:54:39;;;;;;;21.00;19.80;;;;;;;4.55;100.00;103170.25;4997148;28;20484;-36
2024/01/11 10:57:10;;;;;;;24.40;22.20;;;;;;;4.63;100.00;103178.53;4997039;28;20634;-36
2024/01/11 10:59:39;;;;;;;21.97;20.77;;;;;;;4.72;100.00;103172.66;5011137;28;20552;-36
2024/01/11 11:02:12;;;;;;;21.53;20.07;;;;;;;4.81;100.00;103177.34;5012002;28;20472;-36
2024/01/11 11:04:42;;;;;;;21.90;20.50;;;;;;;4.86;100.00;103183.19;5004660;28;20433;-38
2024/01/11 11:07:12;;;;;;;20.07;18.77;;;;;;;4.96;100.00;103186.91;5001043;28;20511;-39
2024/01/11 11:09:43;;;;;;;21.30;19.83;;;;;;;4.78;100.00;103180.19;5014578;28;20514;-37
2024/01/11 11:12:14;;;;;;;22.03;20.63;;;;;;;4.84;100.00;103179.78;5002657;28;20500;-36